Time;durP1;ratioP1;P1;durP2;ratioP2;P2;SDS_P1;SDS_P2;PMS_P1;PMS_P2;Temp;Humidity;BMP_temperature;BMP_pressure;BME280_temperature;BME280_humidity;BME280_pressure;Samples;Min_cycle;Max_cycle;Signal;HPM_P1;HPM_P2
2023/07/29 01:19:02;;;;;;;;;;;;;;;;;;;;;
2023/07/29 01:51:20;;;;;;;2.75;1.77;;;23.10;93.40;;;;;;7444222;19;20355;-80
2023/07/29 02:00:37;;;;;;;1.40;1.30;;;22.90;92.50;;;;;;7440674;19;20356;-80
2023/07/29 02:03:52;;;;;;;2.28;1.83;;;22.90;92.50;;;;;;7439285;19;20072;-81
2023/07/29 02:06:42;;;;;;;7.60;1.70;;;22.80;92.40;;;;;;7441080;19;20034;-81
2023/07/29 02:12:22;;;;;;;4.03;1.70;;;22.70;92.70;;;;;;7422883;19;20018;-80
2023/07/29 02:14:51;;;;;;;6.20;1.80;;;22.70;93.00;;;;;;7419578;19;20384;-80
2023/07/29 02:17:25;;;;;;;3.65;1.50;;;22.80;93.20;;;;;;7441326;19;20009;-80
2023/07/29 02:20:00;;;;;;;2.25;1.60;;;22.70;93.00;;;;;;7419439;19;20023;-81
2023/07/29 02:22:30;;;;;;;3.78;1.55;;;22.70;92.80;;;;;;7420880;19;20002;-80
2023/07/29 02:24:59;;;;;;;6.13;1.83;;;22.70;92.90;;;;;;7419747;19;20033;-80
2023/07/29 02:27:33;;;;;;;4.13;1.67;;;22.60;92.90;;;;;;7419467;19;19999;-80
2023/07/29 02:30:09;;;;;;;4.75;1.50;;;22.60;92.90;;;;;;7427544;19;20373;-79
2023/07/29 03:23:05;;;;;;;5.50;2.35;;;22.20;93.30;;;;;;7407442;19;20369;-79
2023/07/29 03:25:35;;;;;;;;;;;22.10;93.20;;;;;;7388226;19;20007;-80
2023/07/29 03:28:05;;;;;;;;;;;22.20;93.30;;;;;;7397742;19;19960;-80
2023/07/29 03:43:52;;;;;;;;;;;;;;;;;;;;;
2023/07/29 04:07:55;;;;;;;3.45;2.10;;;21.90;93.70;;;;;;5307751;19;9115820;-81
2023/07/29 04:14:15;;;;;;;;;;;;;;;;;;;;;
2023/07/29 04:17:21;;;;;;;4.00;2.20;;;21.80;93.60;;;;;;7418256;19;20002;-81
2023/07/29 04:19:59;;;;;;;2.28;2.05;;;21.90;93.80;;;;;;7417568;19;20010;-82
2023/07/29 04:26:07;;;;;;;2.35;2.10;;;21.80;93.80;;;;;;7439788;19;20003;-83
2023/07/29 04:28:42;;;;;;;2.65;1.80;;;21.80;93.70;;;;;;7417925;19;20022;-81
2023/07/29 04:31:27;;;;;;;3.00;1.85;;;21.80;93.80;;;;;;7418394;19;20020;-81
2023/07/29 04:48:04;;;;;;;3.40;1.70;;;21.90;93.50;;;;;;7439558;19;20015;-81
2023/07/29 04:51:21;;;;;;;2.80;1.90;;;22.00;93.60;;;;;;7441424;19;20012;-81
2023/07/29 05:01:16;;;;;;;;;;;;;;;;;;;;;
2023/07/29 05:03:47;;;;;;;5.20;1.73;;;22.10;93.60;;;;;;7419355;19;20012;-81
2023/07/29 05:06:16;;;;;;;2.55;2.03;;;22.20;93.50;;;;;;7410488;19;20011;-81
2023/07/29 05:08:47;;;;;;;3.08;1.90;;;22.20;93.40;;;;;;7390266;19;19999;-80
2023/07/29 05:11:16;;;;;;;2.83;1.83;;;22.20;93.40;;;;;;7410065;19;20025;-81
2023/07/29 05:13:49;;;;;;;2.40;1.80;;;22.20;93.30;;;;;;7387770;19;20007;-81
2023/07/29 05:27:18;;;;;;;4.03;1.63;;;22.10;93.50;;;;;;7363089;19;20017;-82
2023/07/29 05:30:37;;;;;;;1.98;1.67;;;22.10;93.50;;;;;;7385335;19;20011;-81
2023/07/29 06:25:25;;;;;;;;;;;;;;;;;;;;;
2023/07/29 06:28:08;;;;;;;1.38;0.60;;;21.80;93.00;;;;;;7392346;19;20010;-82
2023/07/29 06:30:41;;;;;;;0.77;0.77;;;21.70;93.20;;;;;;7392317;19;20010;-81
2023/07/29 06:33:10;;;;;;;0.95;0.95;;;21.90;93.00;;;;;;7390273;19;20047;-81
2023/07/29 06:35:45;;;;;;;0.90;0.80;;;21.90;93.00;;;;;;7413248;19;20034;-81
2023/07/29 06:38:44;;;;;;;5.78;1.00;;;21.90;93.10;;;;;;7394352;19;20005;-81
2023/07/29 06:41:49;;;;;;;1.20;1.05;;;21.80;93.30;;;;;;7395031;19;20095;-81
2023/07/29 06:44:29;;;;;;;1.50;0.98;;;21.80;92.90;;;;;;7387942;19;20246;-81
2023/07/29 06:47:42;;;;;;;1.17;0.82;;;22.00;92.90;;;;;;7389202;19;20258;-81
2023/07/29 06:50:18;;;;;;;3.33;1.10;;;22.00;93.00;;;;;;7388332;19;20007;-81
2023/07/29 06:53:17;;;;;;;1.42;0.80;;;22.20;92.80;;;;;;7389149;19;20010;-82
2023/07/29 06:56:20;;;;;;;1.42;1.20;;;22.20;92.80;;;;;;7389440;19;20017;-81
2023/07/29 06:59:07;;;;;;;4.22;0.90;;;22.40;92.80;;;;;;7389222;19;20069;-82
2023/07/29 07:01:48;;;;;;;0.75;0.75;;;22.30;92.30;;;;;;7388864;19;20373;-81
2023/07/29 07:04:16;;;;;;;0.95;0.80;;;22.30;92.40;;;;;;7389545;19;20082;-81
2023/07/29 07:34:43;;;;;;;1.90;0.88;;;22.60;91.90;;;;;;7374659;19;20234;-79
2023/07/29 07:37:15;;;;;;;1.33;1.08;;;22.50;92.20;;;;;;7393240;19;20031;-80
2023/07/29 07:39:44;;;;;;;3.17;1.10;;;22.30;92.00;;;;;;7393465;19;20010;-79
2023/07/29 07:42:13;;;;;;;1.33;1.02;;;22.50;92.10;;;;;;7391840;19;20011;-80
2023/07/29 07:44:47;;;;;;;1.67;1.08;;;22.50;91.70;;;;;;7392314;19;20251;-81
2023/07/29 08:06:59;;;;;;;1.30;1.20;;;22.70;91.80;;;;;;7334620;19;20021;-80
2023/07/29 08:09:47;;;;;;;1.35;1.15;;;22.80;91.60;;;;;;7363509;19;20380;-81
2023/07/29 08:12:16;;;;;;;2.92;1.30;;;22.90;91.60;;;;;;7406334;19;20013;-81
2023/07/29 08:27:56;;;;;;;;;;;;;;;;;;;;;
2023/07/29 08:30:53;;;;;;;3.85;1.30;;;23.30;91.10;;;;;;7386537;19;20230;-85
2023/07/29 08:33:34;;;;;;;1.23;1.13;;;23.30;90.90;;;;;;7390618;19;20038;-82
2023/07/29 08:36:26;;;;;;;1.10;1.00;;;23.30;91.00;;;;;;7391495;19;20002;-82
2023/07/29 08:39:03;;;;;;;2.85;1.50;;;23.30;91.00;;;;;;7388677;19;20022;-85
2023/07/29 08:41:38;;;;;;;1.20;1.10;;;23.30;91.00;;;;;;7409167;19;20015;-80
2023/07/29 08:44:14;;;;;;;1.02;1.02;;;23.40;90.70;;;;;;7393533;19;20336;-82
2023/07/29 08:46:55;;;;;;;1.17;1.10;;;23.50;90.50;;;;;;7394519;19;20015;-82
2023/07/29 08:49:47;;;;;;;5.18;1.40;;;23.40;90.00;;;;;;7393896;19;20006;-86
2023/07/29 08:52:32;;;;;;;1.50;1.20;;;23.30;90.50;;;;;;7388639;19;20011;-81
2023/07/29 08:55:04;;;;;;;3.40;1.30;;;23.30;90.40;;;;;;7389836;19;20014;-81
2023/07/29 09:01:02;;;;;;;6.05;1.30;;;23.40;90.00;;;;;;7386855;19;20250;-82
2023/07/29 09:03:34;;;;;;;3.08;1.42;;;23.30;90.20;;;;;;7390213;19;20007;-80
2023/07/29 09:06:12;;;;;;;1.70;1.60;;;23.40;90.10;;;;;;7386287;19;19998;-81
2023/07/29 09:08:51;;;;;;;1.48;1.33;;;23.40;90.10;;;;;;7392726;19;20011;-82
2023/07/29 09:11:23;;;;;;;9.25;1.55;;;23.40;90.00;;;;;;7407922;19;20007;-81
2023/07/29 09:14:01;;;;;;;4.82;1.70;;;23.50;90.20;;;;;;7388987;19;20003;-82
2023/07/29 09:16:59;;;;;;;1.85;1.50;;;23.50;90.20;;;;;;7389687;19;20018;-84
2023/07/29 09:19:30;;;;;;;2.13;1.80;;;23.50;90.00;;;;;;7395234;19;20079;-79
2023/07/29 09:21:59;;;;;;;1.58;1.48;;;23.60;90.00;;;;;;7399747;19;20019;-79
2023/07/29 09:27:26;;;;;;;1.73;1.55;;;23.80;90.00;;;;;;7401998;19;20013;-80
2023/07/29 09:37:00;;;;;;;2.70;1.80;;;23.80;90.00;;;;;;7411268;19;20247;-82
2023/07/29 09:39:31;;;;;;;2.05;1.83;;;23.90;89.30;;;;;;7393402;19;20017;-81
2023/07/29 09:42:57;;;;;;;;;;;;;;;;;;;;;
2023/07/29 09:55:27;;;;;;;2.67;1.92;;;24.30;89.20;;;;;;7396271;19;20351;-83
2023/07/29 09:58:45;;;;;;;2.42;2.17;;;24.00;88.70;;;;;;7448909;19;20429;-83
2023/07/29 10:05:26;;;;;;;2.35;2.10;;;24.10;89.40;;;;;;7418569;19;20101;-85
2023/07/29 10:08:10;;;;;;;2.97;2.22;;;24.10;89.30;;;;;;7418429;19;20437;-80
2023/07/29 12:11:29;;;;;;;10.85;1.80;;;25.10;89.80;;;;;;7388256;19;20010;-81
2023/07/29 12:13:58;;;;;;;2.17;1.80;;;25.20;90.30;;;;;;7409602;19;20342;-80
2023/07/29 12:16:34;;;;;;;5.32;1.92;;;25.40;90.40;;;;;;7390209;19;20003;-80
2023/07/29 12:19:10;;;;;;;5.65;2.05;;;25.60;90.30;;;;;;7390244;19;20048;-79
2023/07/29 12:21:48;;;;;;;5.50;2.20;;;25.70;89.50;;;;;;7388983;19;20011;-79
2023/07/29 12:24:17;;;;;;;2.58;1.77;;;25.90;90.00;;;;;;7385391;19;20028;-80
2023/07/29 12:26:51;;;;;;;13.75;1.95;;;26.00;89.30;;;;;;7383249;19;20084;-78
2023/07/29 12:29:22;;;;;;;6.70;1.80;;;25.90;88.40;;;;;;7403108;19;20023;-75
2023/07/29 12:31:53;;;;;;;2.70;1.80;;;25.90;88.10;;;;;;7382787;19;20023;-75
2023/07/29 12:34:22;;;;;;;2.17;1.65;;;26.00;88.80;;;;;;7386962;19;20279;-77
2023/07/29 12:36:54;;;;;;;3.42;1.90;;;26.00;87.20;;;;;;7390099;19;20065;-79
2023/07/29 12:39:25;;;;;;;2.53;1.60;;;25.80;88.30;;;;;;7391432;19;20015;-79
2023/07/29 12:41:59;;;;;;;1.67;1.45;;;25.80;88.20;;;;;;7388345;19;20002;-78
2023/07/29 12:44:34;;;;;;;1.98;1.60;;;25.70;89.20;;;;;;7413129;19;20360;-82
2023/07/29 12:47:29;;;;;;;3.45;1.50;;;25.70;88.80;;;;;;7395748;19;20003;-84
2023/07/29 12:49:58;;;;;;;4.90;1.60;;;25.70;89.40;;;;;;7406086;19;20030;-81
2023/07/29 12:52:29;;;;;;;2.65;1.58;;;25.80;88.90;;;;;;7397201;19;19998;-79
2023/07/29 12:54:58;;;;;;;2.33;1.38;;;25.90;88.60;;;;;;7390396;19;20003;-75
2023/07/29 13:00:41;;;;;;;5.65;1.60;;;26.20;86.40;;;;;;7387365;19;19995;-77
2023/07/29 13:03:09;;;;;;;1.42;1.30;;;26.40;86.70;;;;;;7388139;19;20015;-79
2023/07/29 13:05:38;;;;;;;2.55;1.30;;;26.50;84.20;;;;;;7392229;19;20007;-77
2023/07/29 13:08:07;;;;;;;5.53;1.33;;;26.70;84.70;;;;;;7406694;19;20021;-78
2023/07/29 13:10:35;;;;;;;1.30;1.20;;;26.80;84.30;;;;;;7386517;19;20015;-79
2023/07/29 13:13:04;;;;;;;1.50;1.40;;;26.80;82.70;;;;;;7389742;19;20003;-78
2023/07/29 13:15:33;;;;;;;5.95;1.63;;;26.80;82.40;;;;;;7388662;19;20011;-78
2023/07/29 13:18:05;;;;;;;3.00;1.73;;;26.60;83.50;;;;;;7398652;19;20018;-78
2023/07/29 13:20:37;;;;;;;3.88;1.30;;;26.50;83.20;;;;;;7427933;19;20006;-80
2023/07/29 13:23:06;;;;;;;2.03;1.63;;;26.60;84.20;;;;;;7400903;19;20087;-80
2023/07/29 13:25:34;;;;;;;2.05;1.45;;;26.70;82.70;;;;;;7387996;19;20002;-78
2023/07/29 13:28:03;;;;;;;2.47;1.50;;;26.70;81.30;;;;;;7392237;19;20342;-79
2023/07/29 13:30:33;;;;;;;1.60;1.30;;;26.70;82.10;;;;;;7389643;19;20038;-80
2023/07/29 13:33:05;;;;;;;3.22;1.38;;;26.80;81.90;;;;;;7392254;19;20031;-79
2023/07/29 13:35:34;;;;;;;2.75;1.15;;;27.00;82.10;;;;;;7414055;19;20039;-79
2023/07/29 13:38:03;;;;;;;2.47;1.40;;;27.00;79.20;;;;;;7389280;19;20012;-79
2023/07/29 13:40:34;;;;;;;1.38;1.25;;;26.90;79.20;;;;;;7388899;19;20015;-79
2023/07/29 13:43:02;;;;;;;1.63;1.33;;;26.70;79.80;;;;;;7387925;19;20010;-79
2023/07/29 13:45:31;;;;;;;2.05;1.42;;;26.70;79.20;;;;;;7388222;19;20003;-80
2023/07/29 13:48:00;;;;;;;1.95;1.30;;;26.60;80.50;;;;;;7385671;19;20055;-80
2023/07/29 13:50:31;;;;;;;2.67;1.13;;;26.60;82.10;;;;;;7407632;19;20028;-80
2023/07/29 13:53:00;;;;;;;1.77;1.38;;;26.60;81.10;;;;;;7387011;19;20007;-79
2023/07/29 13:55:29;;;;;;;1.67;1.42;;;26.60;82.00;;;;;;7387774;19;20031;-78
2023/07/29 13:57:58;;;;;;;2.55;1.60;;;26.50;82.30;;;;;;7387261;19;20612;-78
2023/07/29 14:00:29;;;;;;;1.58;1.30;;;26.50;81.60;;;;;;7387031;19;20007;-80
2023/07/29 14:02:58;;;;;;;1.63;1.27;;;26.40;82.30;;;;;;7391530;19;19995;-79
2023/07/29 14:05:26;;;;;;;4.18;1.50;;;26.30;82.20;;;;;;7409321;19;20011;-79
2023/07/29 14:07:58;;;;;;;5.47;1.30;;;26.30;83.10;;;;;;7389095;19;20002;-79
2023/07/29 14:10:27;;;;;;;2.38;1.20;;;26.30;82.40;;;;;;7385958;19;20355;-80
2023/07/29 14:12:56;;;;;;;2.15;1.40;;;26.40;82.50;;;;;;7387753;19;20352;-80
2023/07/29 14:15:25;;;;;;;1.50;1.40;;;26.20;82.80;;;;;;7389588;19;20007;-78
2023/07/29 14:17:54;;;;;;;2.35;1.52;;;26.40;84.10;;;;;;7392014;19;20010;-80
2023/07/29 14:20:23;;;;;;;5.03;1.42;;;26.50;83.40;;;;;;7417605;19;20017;-79
2023/07/29 14:22:52;;;;;;;3.55;1.50;;;26.70;83.20;;;;;;7391846;19;20383;-80
2023/07/29 14:25:24;;;;;;;6.63;1.58;;;26.80;83.10;;;;;;7387892;19;20007;-80
2023/07/29 14:27:54;;;;;;;4.32;1.58;;;26.90;83.20;;;;;;7389333;19;20078;-79
2023/07/29 14:30:24;;;;;;;3.55;1.30;;;27.00;83.10;;;;;;7388838;19;20023;-79
2023/07/29 14:32:54;;;;;;;1.95;1.60;;;27.10;82.10;;;;;;7386804;19;20003;-78
2023/07/29 14:35:25;;;;;;;6.28;1.33;;;27.30;82.40;;;;;;7406574;19;20010;-79
2023/07/29 14:37:54;;;;;;;2.08;1.25;;;27.30;80.60;;;;;;7391559;19;20003;-80
2023/07/29 14:40:26;;;;;;;1.55;1.33;;;27.40;80.20;;;;;;7394846;19;20074;-80
2023/07/29 14:42:55;;;;;;;2.50;1.08;;;27.30;80.20;;;;;;7396119;19;20039;-80
2023/07/29 14:45:24;;;;;;;1.05;0.93;;;27.30;79.10;;;;;;7393427;19;20016;-81
2023/07/29 14:47:53;;;;;;;1.35;1.05;;;27.40;78.30;;;;;;7393928;19;20010;-79
2023/07/29 14:50:22;;;;;;;2.75;1.40;;;27.40;77.90;;;;;;7416080;19;20031;-79
2023/07/29 14:52:50;;;;;;;1.35;0.98;;;27.50;77.20;;;;;;7394938;19;20006;-80
2023/07/29 14:55:20;;;;;;;1.20;1.00;;;27.40;77.00;;;;;;7394740;19;20010;-79
2023/07/29 14:57:51;;;;;;;4.75;1.13;;;27.50;77.80;;;;;;7394519;19;20046;-79
2023/07/29 15:00:20;;;;;;;3.03;1.13;;;27.60;76.70;;;;;;7395561;19;20039;-80
2023/07/29 15:02:49;;;;;;;1.75;1.05;;;27.60;76.00;;;;;;7394710;19;20074;-80
2023/07/29 15:05:18;;;;;;;1.58;1.10;;;27.60;76.80;;;;;;7416201;19;20349;-80
2023/07/29 15:07:49;;;;;;;0.88;0.88;;;27.60;77.60;;;;;;7393204;19;20007;-79
2023/07/29 15:10:29;;;;;;;;;;;27.70;77.20;;;;;;7394866;19;20014;-81
2023/07/29 15:13:04;;;;;;;2.28;1.25;;;27.80;77.80;;;;;;7398403;19;19917;-79
2023/07/29 15:15:33;;;;;;;3.83;1.30;;;27.80;77.50;;;;;;7391628;19;20007;-81
2023/07/29 15:18:02;;;;;;;4.13;1.20;;;27.60;77.80;;;;;;7385651;19;20018;-76
2023/07/29 15:20:30;;;;;;;1.77;1.20;;;27.60;78.30;;;;;;7408918;19;20007;-75
2023/07/29 15:22:59;;;;;;;1.63;1.20;;;27.50;79.00;;;;;;7386212;19;20007;-74
2023/07/29 15:25:28;;;;;;;5.28;1.42;;;27.40;81.00;;;;;;7386219;19;20019;-74
2023/07/29 15:27:57;;;;;;;2.15;1.30;;;27.30;81.80;;;;;;7389459;19;20028;-76
2023/07/29 15:30:29;;;;;;;1.63;1.20;;;27.10;82.10;;;;;;7387732;19;20007;-75
2023/07/29 15:32:58;;;;;;;8.15;1.70;;;26.90;82.70;;;;;;7387402;19;20035;-78
2023/07/29 17:31:36;;;;;;;4.53;2.20;;;27.10;78.00;;;;;;7288123;19;2004520;-81
2023/07/29 17:37:22;;;;;;;2.63;1.95;;;27.00;79.10;;;;;;7407960;19;20018;-85
2023/07/29 17:39:51;;;;;;;3.05;2.20;;;26.90;79.70;;;;;;7393205;19;20003;-74
2023/07/29 17:42:20;;;;;;;3.75;2.05;;;26.80;80.80;;;;;;7389680;19;20007;-74
2023/07/29 17:44:52;;;;;;;4.90;1.90;;;26.50;84.60;;;;;;7389929;19;20027;-74
2023/07/29 17:47:23;;;;;;;2.70;1.92;;;26.20;85.10;;;;;;7397244;19;20007;-74
2023/07/29 17:49:53;;;;;;;4.78;2.15;;;26.10;88.80;;;;;;7393154;19;20003;-74
2023/07/29 17:52:25;;;;;;;6.67;2.33;;;26.10;90.70;;;;;;7407812;19;20361;-73
2023/07/29 17:54:54;;;;;;;3.53;2.00;;;26.20;90.90;;;;;;7386496;19;20014;-76
2023/07/29 17:57:26;;;;;;;3.78;2.30;;;26.40;90.80;;;;;;7388056;19;20015;-77
2023/07/29 17:59:59;;;;;;;4.03;2.20;;;26.60;90.70;;;;;;7391590;19;20255;-76
2023/07/29 18:02:41;;;;;;;2.90;2.03;;;26.80;91.00;;;;;;7397387;19;20014;-79
2023/07/29 18:05:45;;;;;;;;;;;;;;;;;;;;;
2023/07/29 18:08:36;;;;;;;2.85;2.25;;;27.10;90.60;;;;;;7395174;19;20056;-79
2023/07/29 18:11:28;;;;;;;;;;;;;;;;;;;;;
2023/07/29 18:14:47;;;;;;;;;;;;;;;;;;;;;
2023/07/29 18:17:49;;;;;;;5.30;2.35;;;27.00;88.70;;;;;;7403236;19;20010;-80
2023/07/29 18:20:57;;;;;;;;;;;;;;;;;;;;;
2023/07/29 18:23:59;;;;;;;4.80;2.15;;;26.90;89.50;;;;;;7401395;19;20033;-80
2023/07/29 19:42:00;;;;;;;7.40;2.60;;;25.30;90.10;;;;;;7324520;19;2004646;-80
2023/07/29 19:45:11;;;;;;;5.30;2.40;;;25.10;90.20;;;;;;7426327;19;20002;-80
2023/07/29 20:38:15;;;;;;;;;;;;;;;;;;;;;
2023/07/29 20:41:40;;;;;;;;;;;;;;;;;;;;;
2023/07/29 21:27:28;;;;;;;;;;;;;;;;;;;;;
2023/07/29 21:37:05;;;;;;;;;;;;;;;;;;;;;
2023/07/29 21:54:14;;;;;;;10.98;4.50;;;23.90;92.80;;;;;;7432411;19;20010;-80
2023/07/29 21:57:12;;;;;;;12.02;6.95;;;23.40;93.00;;;;;;7453456;19;20037;-80
2023/07/29 22:00:08;;;;;;;15.80;6.80;;;23.20;93.70;;;;;;7434243;19;20018;-79
2023/07/29 22:03:00;;;;;;;;;;;;;;;;;;;;;
2023/07/29 22:05:38;;;;;;;14.35;6.70;;;22.90;94.30;;;;;;7430921;19;20880;-79
2023/07/29 22:08:16;;;;;;;15.40;6.45;;;22.80;94.30;;;;;;7452208;19;20102;-79
2023/07/29 22:11:21;;;;;;;;;;;;;;;;;;;;;
2023/07/29 22:14:23;;;;;;;;;;;;;;;;;;;;;
2023/07/29 22:17:00;;;;;;;;;;;22.60;94.40;;;;;;7426241;19;20010;-79
2023/07/29 22:19:44;;;;;;;;;;;;;;;;;;;;;
2023/07/29 22:25:37;;;;;;;13.10;4.90;;;22.30;93.80;;;;;;7316716;19;2004584;-77
2023/07/29 22:31:19;;;;;;;;;;;;;;;;;;;;;
2023/07/29 22:34:06;;;;;;;18.42;5.28;;;22.20;93.20;;;;;;7397172;19;20010;-79
2023/07/29 22:37:11;;;;;;;;;;;;;;;;;;;;;
